• Join FlightAware (Why Join?)
  • Login
  • US Flag 
10:50PM EDT


 

Airport Tracker/Info


-or-


 

Live Flight TrackerFlight Track Log ✈ N789EX ✈ 27-Nov-2013 ✈ KBFI

Flight Track Log - Related Links

Times and Time Zones

All times are in EST time to prevent confusion due to time zone crossing. See the N789EX flight status page for this flight to view local times or setup timezone preferences in your user account.

Time Position Orientation Groundspeed Altitude Reporting Facility
EST Latitude Longitude Course Direction KTS MPH feet Rate Location/Type
02:50PM 47.0603 -125.5186 85° East 396 456 17,900  Level Seattle Center
02:51PM 47.0294 -125.3586 106° East 416 479 16,900 -540 Descending Seattle Center
02:52PM 47.0183 -125.1944 96° East 415 478 16,900  Level Seattle Center
02:53PM 47.0089 -125.0450 95° East 377 434 16,900  Level Seattle Center
02:54PM 47.0014 -124.9303 95° East 303 349 16,900  Level Seattle Center
02:55PM 46.9375 -124.0552 85° East  Level FlightAware Approximate
02:55PM 46.9933 -124.8153 96° East 288 331 16,900  Level Seattle Center
02:56PM 46.9822 -124.6589 96° East 324 373 16,900  Level Seattle Center
02:57PM 46.9714 -124.4897 95° East 396 456 16,900  Level Seattle Center
02:58PM 46.9589 -124.3211 96° East 415 478 16,900  Level Seattle Center
02:59PM 46.9467 -124.1575 96° East 411 473 16,900  Level Seattle Center
03:00PM 46.9500 -123.9889 88° East 416 479 16,900  Level Seattle Center
03:01PM 46.9539 -123.8156 88° East 416 479 16,900  Level Seattle Center
03:02PM 46.9575 -123.6464 88° East 417 480 16,900 -300 Level Seattle Center
03:03PM 46.9603 -123.4719 89° East 439 505 16,300 -1,200 Descending Seattle Center
03:04PM 46.9622 -123.3075 89° East 411 473 14,500 -2,160 Descending Seattle Center
03:04PM 46.9647 -123.2764 83° East 402 463 14,000 -3,000 Descending Seattle Center
03:05PM 46.9658 -123.2272 88° East 396 456 13,400 -1,260 Descending Seattle Center
03:05PM 46.9675 -123.1297 89° East 388 447 12,800 -840 Descending Seattle Center
03:06PM 46.9678 -123.0742 90° East 373 429 12,600 -540 Descending Seattle Center
03:06PM 46.9697 -122.9803 88° East 347 399 12,300 -420 Descending Seattle Center
03:07PM 46.9714 -122.9461 86° East 304 350 12,200 -300 Descending Seattle Center
03:07PM 46.9958 -122.8694 65° Northeast 311 358 12,000 -240 Descending Seattle Center
03:08PM 47.0150 -122.8450 41° Northeast 302 348 12,000  Level Seattle Center
03:08PM 47.0603 -122.7878 41° Northeast 310 357 12,000 -780 Level Seattle Center
03:09PM 47.1228 -122.7081 41° Northeast 295 339 10,700 -1,560 Descending Seattle Center
03:10PM 47.1447 -122.6811 40° Northeast 291 335 9,900 -2,100 Descending Seattle Center
03:10PM 47.1833 -122.6239 45° Northeast 280 322 8,600 -1,800 Descending Seattle Center
03:11PM 47.1967 -122.5975 53° Northeast 271 312 8,100 -1,500 Descending Seattle Center
03:11PM 47.2253 -122.5356 56° Northeast 265 305 7,100 -1,620 Descending Seattle Center
03:12PM 47.2389 -122.5094 52° Northeast 260 299 6,500 -1,080 Descending Seattle Center
03:12PM 47.2675 -122.4494 55° Northeast 260 299 6,000 -540 Descending Seattle Center
03:13PM 47.2797 -122.4250 54° Northeast 255 293 6,000 -540 Level Seattle Center
03:13PM 47.3083 -122.3689 53° Northeast 249 287 5,500 -900 Descending Seattle Center
03:14PM 47.3244 -122.3386 52° Northeast 248 285 5,100 -720 Descending Seattle Center
03:14PM 47.3536 -122.2806 53° Northeast 252 290 4,800 -600 Descending Seattle Center
03:15PM 47.3694 -122.2614 39° Northeast 245 282 4,500 -900 Descending Seattle Center
03:15PM 47.4100 -122.2406 19° North 227 261 3,900 -1,200 Descending Seattle Center
03:16PM 47.4267 -122.2331 17° North 210 242 3,300 -2,100 Descending Seattle Center
03:16PM 47.4644 -122.2481 345° North 211 243 1,800 -2,280 Descending Seattle Center
03:17PM 47.4861 -122.2658 331° Northwest 202 232 800 -1,620 Descending Seattle Center
03:17PM 47.5117 -122.2881 330° Northwest 193 222 200 -780 Descending Seattle Center
03:18PM 47.5178 -122.2942 326° Northwest 172 198 100 -120 Descending Seattle Center
03:18PM 47.5386 -122.3147 326° Northwest 171 197 100  Level Seattle Center
03:20PM 47.5300 -122.3020 180° South  Level Estimated
03:27PM 47.5300 -122.3020 180° South  Level Estimated